createdAt,value
2019-01-21T00:00:58.027Z,12.16
2019-01-21T00:01:58.013Z,13.39
2019-01-21T00:02:57.999Z,13.20
2019-01-21T00:03:57.985Z,12.45
2019-01-21T00:04:57.971Z,10.56
2019-01-21T00:05:57.961Z,11.13
2019-01-21T00:06:57.947Z,11.79
2019-01-21T00:07:57.932Z,12.63
2019-01-21T00:08:57.919Z,13.39
2019-01-21T00:09:57.906Z,15.00
2019-01-21T00:10:57.892Z,15.75
2019-01-21T00:11:57.878Z,15.28
2019-01-21T00:12:57.864Z,13.67
2019-01-21T00:13:57.851Z,13.39
2019-01-21T00:14:57.836Z,13.10
2019-01-21T00:15:57.824Z,13.29
2019-01-21T00:16:57.848Z,13.77
2019-01-21T00:17:57.796Z,14.62
2019-01-21T00:18:57.788Z,14.62
2019-01-21T00:19:57.771Z,15.56
2019-01-21T00:20:57.759Z,16.22
2019-01-21T00:21:57.745Z,18.29
2019-01-21T00:22:57.729Z,18.96
2019-01-21T00:23:57.717Z,19.52
2019-01-21T00:24:57.702Z,19.24
2019-01-21T00:25:57.689Z,17.82
2019-01-21T00:26:57.675Z,17.44
2019-01-21T00:27:57.662Z,18.48
2019-01-21T00:28:57.649Z,17.25
2019-01-21T00:29:57.635Z,16.31
2019-01-21T00:30:57.620Z,16.13
2019-01-21T00:31:57.610Z,16.31
2019-01-21T00:32:57.594Z,17.92
2019-01-21T00:33:57.583Z,18.39
2019-01-21T00:34:57.567Z,18.77
2019-01-21T00:35:57.554Z,18.96
2019-01-21T00:37:03.464Z,19.52
2019-01-21T00:37:57.527Z,20.09
2019-01-21T00:38:57.514Z,20.65
2019-01-21T00:39:57.499Z,22.54
2019-01-21T00:40:57.486Z,21.97
2019-01-21T00:41:57.475Z,21.78
2019-01-21T00:42:57.459Z,21.69
2019-01-21T00:43:57.446Z,20.75
2019-01-21T00:44:57.433Z,20.09
2019-01-21T00:45:57.419Z,20.00
2019-01-21T00:46:57.404Z,18.01
2019-01-21T00:47:57.392Z,17.92
2019-01-21T00:48:57.379Z,17.16
2019-01-21T00:49:57.364Z,16.41
2019-01-21T00:50:57.350Z,16.69
2019-01-21T00:51:57.338Z,17.16
2019-01-21T00:52:57.325Z,16.97
2019-01-21T00:53:57.311Z,17.25
2019-01-21T00:54:57.298Z,18.67
2019-01-21T00:55:57.283Z,20.28
2019-01-21T00:56:57.271Z,21.03
2019-01-21T00:57:57.256Z,22.82
2019-01-21T00:58:57.242Z,23.67
2019-01-21T00:59:57.231Z,22.92
2019-01-21T01:00:57.215Z,21.12
2019-01-21T01:01:57.203Z,19.90
2019-01-21T01:02:57.187Z,19.33
2019-01-21T01:03:57.174Z,18.96
2019-01-21T01:04:57.261Z,19.24
2019-01-21T01:05:57.148Z,19.24
2019-01-21T01:06:57.136Z,19.33
2019-01-21T01:07:57.120Z,19.62
2019-01-21T01:08:57.106Z,19.05
2019-01-21T01:09:57.092Z,20.28
2019-01-21T01:10:57.079Z,20.56
2019-01-21T01:11:57.067Z,20.00
2019-01-21T01:12:57.051Z,18.86
2019-01-21T01:13:57.040Z,18.67
2019-01-21T01:14:57.023Z,20.28
2019-01-21T01:15:57.011Z,19.05
2019-01-21T01:16:56.996Z,19.43
2019-01-21T01:17:56.982Z,19.14
2019-01-21T01:18:56.970Z,19.43
2019-01-21T01:19:56.956Z,19.24
2019-01-21T01:20:56.943Z,19.52
2019-01-21T01:21:56.930Z,18.86
2019-01-21T01:22:56.915Z,18.20
2019-01-21T01:23:56.900Z,19.52
2019-01-21T01:24:56.888Z,20.09
2019-01-21T01:25:56.976Z,20.00
2019-01-21T01:26:56.860Z,20.56
2019-01-21T01:27:56.847Z,21.88
2019-01-21T01:28:56.834Z,22.07
2019-01-21T01:29:56.818Z,21.50
2019-01-21T01:30:56.805Z,21.59
2019-01-21T01:31:56.791Z,21.69
2019-01-21T01:32:56.777Z,21.97
2019-01-21T01:33:56.764Z,23.67
2019-01-21T01:34:56.749Z,23.39
2019-01-21T01:35:56.736Z,23.96
2019-01-21T01:36:56.724Z,24.71
2019-01-21T01:37:56.710Z,25.56
2019-01-21T01:38:56.701Z,25.18
2019-01-21T01:39:56.683Z,25.18
2019-01-21T01:40:56.668Z,25.56
2019-01-21T01:41:56.657Z,25.74
2019-01-21T01:42:56.641Z,20.84
2019-01-21T01:43:56.627Z,19.05
2019-01-21T01:44:56.613Z,17.73
2019-01-21T01:45:56.601Z,17.63
2019-01-21T01:46:56.584Z,18.67
2019-01-21T01:47:56.571Z,19.62
2019-01-21T01:48:56.562Z,20.94
2019-01-21T01:49:56.545Z,22.07
2019-01-21T01:50:56.531Z,23.11
2019-01-21T01:51:56.617Z,25.09
2019-01-21T01:52:56.504Z,26.69
2019-01-21T01:53:56.489Z,28.11
2019-01-21T01:54:56.477Z,28.58
2019-01-21T01:55:56.463Z,24.99
2019-01-21T01:56:56.449Z,22.82
2019-01-21T01:57:56.436Z,20.00
2019-01-21T01:58:56.422Z,20.09
2019-01-21T01:59:56.409Z,20.18
2019-01-21T02:00:56.396Z,19.90
2019-01-21T02:01:56.380Z,21.59
2019-01-21T02:02:56.368Z,24.71
2019-01-21T02:03:56.354Z,25.56
2019-01-21T02:04:56.340Z,25.84
2019-01-21T02:05:56.326Z,26.12
2019-01-21T02:06:56.312Z,25.74
2019-01-21T02:07:56.298Z,25.46
2019-01-21T02:08:56.284Z,25.37
2019-01-21T02:09:56.270Z,25.65
2019-01-21T02:10:56.257Z,25.46
2019-01-21T02:11:56.244Z,25.93
2019-01-21T02:12:56.237Z,25.09
2019-01-21T02:13:56.216Z,25.46
2019-01-21T02:14:56.205Z,25.84
2019-01-21T02:15:56.188Z,24.90
2019-01-21T02:16:56.175Z,23.58
2019-01-21T02:17:56.161Z,23.20
2019-01-21T02:18:56.149Z,23.01
2019-01-21T02:19:56.134Z,22.73
2019-01-21T02:20:56.122Z,23.48
2019-01-21T02:21:56.123Z,23.86
2019-01-21T02:22:56.093Z,23.86
2019-01-21T02:23:56.082Z,24.99
2019-01-21T02:24:56.065Z,24.71
2019-01-21T02:25:56.052Z,25.74
2019-01-21T02:26:56.038Z,26.11
2019-01-21T02:27:56.023Z,25.83
2019-01-21T02:28:56.010Z,25.35
2019-01-21T02:29:55.999Z,24.60
2019-01-21T02:30:55.982Z,23.86
2019-01-21T02:31:55.968Z,23.38
2019-01-21T02:32:55.955Z,23.66
2019-01-21T02:33:55.944Z,23.47
2019-01-21T02:34:55.927Z,22.06
2019-01-21T02:35:55.913Z,20.64
2019-01-21T02:36:55.902Z,20.64
2019-01-21T02:37:55.975Z,18.95
2019-01-21T02:38:55.882Z,15.17
2019-01-21T02:39:55.862Z,14.33
2019-01-21T02:40:55.846Z,14.71
2019-01-21T02:41:55.833Z,15.28
2019-01-21T02:42:55.819Z,15.66
2019-01-21T02:43:55.804Z,16.22
2019-01-21T02:44:55.791Z,16.22
2019-01-21T02:45:55.777Z,15.75
2019-01-21T02:46:55.763Z,16.13
2019-01-21T02:47:59.995Z,15.75
2019-01-21T02:48:55.739Z,15.94
2019-01-21T02:49:55.722Z,16.97
2019-01-21T02:50:55.719Z,17.73
2019-01-21T02:51:55.693Z,18.86
2019-01-21T02:52:55.680Z,20.18
2019-01-21T02:53:55.667Z,20.45
2019-01-21T02:54:55.651Z,20.47
2019-01-21T02:55:55.638Z,20.55
2019-01-21T02:56:55.626Z,20.75
2019-01-21T02:57:55.614Z,21.78
2019-01-21T02:58:55.597Z,22.34
2019-01-21T02:59:55.583Z,23.00
2019-01-21T03:00:55.569Z,23.47
2019-01-21T03:01:55.558Z,24.32
2019-01-21T03:02:55.540Z,23.85
2019-01-21T03:03:55.528Z,23.47
2019-01-21T03:04:55.513Z,22.91
2019-01-21T03:05:55.500Z,19.89
2019-01-21T03:06:55.486Z,18.10
2019-01-21T03:07:55.472Z,16.69
2019-01-21T03:08:55.461Z,16.03
2019-01-21T03:09:55.444Z,15.09
2019-01-21T03:10:55.501Z,15.08
2019-01-21T03:11:55.417Z,15.66
2019-01-21T03:12:55.402Z,15.46
2019-01-21T03:13:55.392Z,15.18
2019-01-21T03:14:55.375Z,15.28
2019-01-21T03:15:55.362Z,15.84
2019-01-21T03:16:55.346Z,16.03
2019-01-21T03:17:55.334Z,16.88
2019-01-21T03:18:55.320Z,17.63
2019-01-21T03:19:55.305Z,17.92
2019-01-21T03:20:55.292Z,18.39
2019-01-21T03:21:55.279Z,19.33
2019-01-21T03:22:55.264Z,19.62
2019-01-21T03:23:55.252Z,19.71
2019-01-21T03:24:55.237Z,19.13
2019-01-21T03:25:55.223Z,19.33
2019-01-21T03:26:55.207Z,19.43
2019-01-21T03:27:55.197Z,19.33
2019-01-21T03:28:55.180Z,19.89
2019-01-21T03:29:55.167Z,20.45
2019-01-21T03:30:55.154Z,20.07
2019-01-21T03:31:55.139Z,19.04
2019-01-21T03:32:55.126Z,18.76
2019-01-21T03:33:55.117Z,17.63
2019-01-21T03:34:55.101Z,17.06
2019-01-21T03:35:55.085Z,17.72
2019-01-21T03:36:55.073Z,18.57
2019-01-21T03:37:55.061Z,18.76
2019-01-21T03:38:55.044Z,18.85
2019-01-21T03:39:55.029Z,20.17
2019-01-21T03:40:55.017Z,18.85
2019-01-21T03:41:55.002Z,17.91
2019-01-21T03:42:54.985Z,17.06
2019-01-21T03:43:54.972Z,16.21
2019-01-21T03:44:54.960Z,16.21
2019-01-21T03:45:54.948Z,17.16
2019-01-21T03:46:54.929Z,18.38
2019-01-21T03:47:54.917Z,19.89
2019-01-21T03:48:54.904Z,20.26
2019-01-21T03:49:54.888Z,20.83
2019-01-21T03:50:54.874Z,21.96
2019-01-21T03:51:54.861Z,23.47
2019-01-21T03:52:54.845Z,23.47
2019-01-21T03:53:54.833Z,23.10
2019-01-21T03:54:54.817Z,22.91
2019-01-21T03:55:54.804Z,22.81
2019-01-21T03:56:54.790Z,21.87
2019-01-21T03:57:54.777Z,22.81
2019-01-21T03:58:54.760Z,22.72
2019-01-21T03:59:54.747Z,22.25
2019-01-21T04:00:54.733Z,22.15
2019-01-21T04:01:54.719Z,21.77
2019-01-21T04:02:54.705Z,21.11
2019-01-21T04:03:54.694Z,21.02
2019-01-21T04:04:54.679Z,20.17
2019-01-21T04:05:54.669Z,19.89
2019-01-21T04:06:54.647Z,20.26
2019-01-21T04:07:54.645Z,19.60
2019-01-21T04:08:54.622Z,19.51
2019-01-21T04:09:54.607Z,19.60
2019-01-21T04:10:54.591Z,19.79
2019-01-21T04:11:54.579Z,19.13
2019-01-21T04:12:54.566Z,18.38
2019-01-21T04:13:54.552Z,18.38
2019-01-21T04:14:54.537Z,18.01
2019-01-21T04:15:54.522Z,17.91
2019-01-21T04:16:54.509Z,18.38
2019-01-21T04:17:54.495Z,17.63
2019-01-21T04:18:54.483Z,17.16
2019-01-21T04:19:54.464Z,17.44
2019-01-21T04:20:54.452Z,17.63
2019-01-21T04:21:54.439Z,13.10
2019-01-21T04:22:54.426Z,13.29
2019-01-21T04:23:54.409Z,13.57
2019-01-21T04:24:54.397Z,13.76
2019-01-21T04:25:54.572Z,14.23
2019-01-21T04:26:54.519Z,14.32
2019-01-21T04:27:54.353Z,14.51
2019-01-21T04:28:54.339Z,14.61
2019-01-21T04:29:54.324Z,14.14
2019-01-21T04:30:54.311Z,14.04
2019-01-21T04:31:54.296Z,13.85
2019-01-21T04:32:54.284Z,13.39
2019-01-21T04:33:54.271Z,12.25
2019-01-21T04:34:54.253Z,11.88
2019-01-21T04:35:54.241Z,12.54
2019-01-21T04:36:54.227Z,13.48
2019-01-21T04:37:54.212Z,13.39
2019-01-21T04:38:54.197Z,14.61
2019-01-21T04:39:54.184Z,14.89
2019-01-21T04:40:54.169Z,14.89
2019-01-21T04:41:54.156Z,15.64
2019-01-21T04:42:54.141Z,15.74
2019-01-21T04:43:54.126Z,16.02
2019-01-21T04:44:54.113Z,15.83
2019-01-21T04:45:54.101Z,15.08
2019-01-21T04:46:54.088Z,13.39
2019-01-21T04:47:54.069Z,10.65
2019-01-21T04:48:54.055Z,8.76
2019-01-21T04:49:54.040Z,7.73
2019-01-21T04:50:54.030Z,7.16
2019-01-21T04:51:54.013Z,6.41
2019-01-21T04:52:54.000Z,1.03
2019-01-21T04:53:53.984Z,0.00
2019-01-21T04:54:53.970Z,0.00
2019-01-21T04:55:53.956Z,0.00
2019-01-21T04:56:53.941Z,1.60
2019-01-21T04:57:53.928Z,3.49
2019-01-21T04:58:53.918Z,6.12
2019-01-21T04:59:53.899Z,7.54
2019-01-21T05:00:53.885Z,7.92
2019-01-21T05:01:53.870Z,8.39
2019-01-21T05:02:53.856Z,8.86
2019-01-21T05:03:53.841Z,9.42
2019-01-21T05:04:53.833Z,8.58
2019-01-21T05:05:53.814Z,9.14
2019-01-21T05:06:53.798Z,9.33
2019-01-21T05:07:53.787Z,9.61
2019-01-21T05:08:53.771Z,8.39
2019-01-21T05:09:53.756Z,7.16
2019-01-21T05:10:53.741Z,6.31
2019-01-21T05:11:53.727Z,6.50
2019-01-21T05:12:53.714Z,6.69
2019-01-21T05:13:53.699Z,7.64
2019-01-21T05:14:53.684Z,8.48
2019-01-21T05:15:53.690Z,8.76
2019-01-21T05:16:53.658Z,9.23
2019-01-21T05:17:53.645Z,9.42
2019-01-21T05:18:53.633Z,9.61
2019-01-21T05:19:53.615Z,10.65
2019-01-21T05:20:53.600Z,12.54
2019-01-21T05:21:53.586Z,13.10
2019-01-21T05:22:53.570Z,14.04
2019-01-21T05:23:53.555Z,14.70
2019-01-21T05:24:53.543Z,13.95
2019-01-21T05:25:53.529Z,14.70
2019-01-21T05:26:53.515Z,14.61
2019-01-21T05:27:53.500Z,14.79
2019-01-21T05:28:53.483Z,14.61
2019-01-21T05:29:53.474Z,15.27
2019-01-21T05:30:53.458Z,14.79
2019-01-21T05:31:53.442Z,15.08
2019-01-21T05:32:53.430Z,15.17
2019-01-21T05:33:53.419Z,13.85
2019-01-21T05:34:53.400Z,12.82
2019-01-21T05:35:53.436Z,11.12
2019-01-21T05:36:53.373Z,9.52
2019-01-21T05:37:53.361Z,6.03
2019-01-21T05:38:53.343Z,5.65
2019-01-21T05:39:53.334Z,5.37
2019-01-21T05:40:53.313Z,5.56
2019-01-21T05:41:53.299Z,5.94
2019-01-21T05:42:53.284Z,7.54
2019-01-21T05:43:53.270Z,7.54
2019-01-21T05:44:53.256Z,7.64
2019-01-21T05:45:53.242Z,7.92
2019-01-21T05:46:53.225Z,7.35
2019-01-21T05:47:53.213Z,7.45
2019-01-21T05:48:53.200Z,8.29
2019-01-21T05:49:53.185Z,9.05
2019-01-21T05:50:53.171Z,9.89
2019-01-21T05:51:53.157Z,9.70
2019-01-21T05:52:53.143Z,9.80
2019-01-21T05:53:53.129Z,9.80
2019-01-21T05:54:53.117Z,8.86
2019-01-21T05:55:53.100Z,8.29
2019-01-21T05:56:53.085Z,8.48
2019-01-21T05:57:53.074Z,8.76
2019-01-21T05:58:53.055Z,9.33
2019-01-21T05:59:53.043Z,9.99
2019-01-21T06:00:53.036Z,10.46
2019-01-21T06:01:53.014Z,11.31
2019-01-21T06:02:52.997Z,11.88
2019-01-21T06:03:52.986Z,12.25
2019-01-21T06:04:52.971Z,12.16
2019-01-21T06:05:52.955Z,13.29
2019-01-21T06:06:52.940Z,13.67
2019-01-21T06:07:52.927Z,13.95
2019-01-21T06:08:52.912Z,14.04
2019-01-21T06:09:52.897Z,14.32
2019-01-21T06:10:52.884Z,15.27
2019-01-21T06:11:52.869Z,15.46
2019-01-21T06:12:52.856Z,15.74
2019-01-21T06:13:52.842Z,15.74
2019-01-21T06:14:52.825Z,15.64
2019-01-21T06:15:52.814Z,15.64
2019-01-21T06:16:52.798Z,14.79
2019-01-21T06:17:52.785Z,14.51
2019-01-21T06:18:57.226Z,14.23
2019-01-21T06:19:52.754Z,13.29
2019-01-21T06:20:52.739Z,12.44
2019-01-21T06:21:52.726Z,9.89
2019-01-21T06:22:52.710Z,8.11
2019-01-21T06:23:52.697Z,6.88
2019-01-21T06:24:52.681Z,5.65
2019-01-21T06:25:52.667Z,4.14
2019-01-21T06:26:52.653Z,1.98
2019-01-21T06:27:52.639Z,0.47
2019-01-21T06:28:52.624Z,0.00
2019-01-21T06:29:52.610Z,0.00
2019-01-21T06:30:52.596Z,0.37
2019-01-21T06:31:52.580Z,1.70
2019-01-21T06:32:52.567Z,2.64
2019-01-21T06:33:52.552Z,4.24
2019-01-21T06:34:52.538Z,5.09
2019-01-21T06:35:52.524Z,4.33
2019-01-21T06:36:52.509Z,4.14
2019-01-21T06:37:52.494Z,3.96
2019-01-21T06:38:52.480Z,2.17
2019-01-21T06:39:52.467Z,1.51
2019-01-21T06:40:52.451Z,0.47
2019-01-21T06:41:52.437Z,0.00
2019-01-21T06:42:52.423Z,0.00
2019-01-21T06:43:52.407Z,0.00
2019-01-21T06:44:52.395Z,0.00
2019-01-21T06:45:52.378Z,0.00
2019-01-21T06:46:52.364Z,0.00
2019-01-21T06:47:52.350Z,0.00
2019-01-21T06:48:52.344Z,0.00
2019-01-21T06:49:52.322Z,0.00
2019-01-21T06:50:52.307Z,0.28
2019-01-21T06:51:52.292Z,0.85
2019-01-21T06:52:52.278Z,1.32
2019-01-21T06:53:52.264Z,1.88
2019-01-21T06:54:52.248Z,2.55
2019-01-21T06:55:52.234Z,2.26
2019-01-21T06:56:52.220Z,0.00
2019-01-21T06:57:52.205Z,0.00
2019-01-21T06:58:52.190Z,0.00
2019-01-21T06:59:52.177Z,0.00
2019-01-21T07:00:52.160Z,0.00
2019-01-21T07:01:52.148Z,0.00
2019-01-21T07:02:52.131Z,0.00
2019-01-21T07:03:52.118Z,0.00
2019-01-21T07:04:52.121Z,0.00
2019-01-21T07:05:52.089Z,0.00
2019-01-21T07:07:52.060Z,0.00
2019-01-21T07:08:52.044Z,0.00
2019-01-21T07:09:52.029Z,0.00
2019-01-21T07:10:52.015Z,0.00
2019-01-21T07:11:52.001Z,0.00
2019-01-21T07:12:51.987Z,0.00
2019-01-21T07:13:51.973Z,0.00
2019-01-21T07:14:51.957Z,0.00
2019-01-21T07:15:51.943Z,0.00
2019-01-21T07:16:51.929Z,0.00
2019-01-21T07:17:51.914Z,0.00
2019-01-21T07:18:51.899Z,0.00
2019-01-21T07:19:51.885Z,0.28
2019-01-21T07:20:51.870Z,0.94
2019-01-21T07:21:51.856Z,3.39
2019-01-21T07:22:51.841Z,3.67
2019-01-21T07:23:53.081Z,4.14
2019-01-21T07:24:51.812Z,4.05
2019-01-21T07:25:51.798Z,4.71
2019-01-21T07:26:51.783Z,6.31
2019-01-21T07:27:51.769Z,8.01
2019-01-21T07:28:51.755Z,14.98
2019-01-21T07:29:51.741Z,15.27
2019-01-21T07:30:51.725Z,16.21
2019-01-21T07:31:51.711Z,15.27
2019-01-21T07:32:51.696Z,13.01
2019-01-21T07:33:51.681Z,9.89
2019-01-21T07:34:51.668Z,8.01
2019-01-21T07:35:51.651Z,7.45
2019-01-21T07:36:51.639Z,4.61
2019-01-21T07:37:51.626Z,2.92
2019-01-21T07:38:51.610Z,0.85
2019-01-21T07:39:51.596Z,0.56
2019-01-21T07:40:51.581Z,1.88
2019-01-21T07:41:51.566Z,1.41
2019-01-21T07:42:51.551Z,2.26
2019-01-21T07:43:51.538Z,2.64
2019-01-21T07:44:51.523Z,2.45
2019-01-21T07:45:51.510Z,2.07
2019-01-21T07:46:51.497Z,1.60
2019-01-21T07:47:51.480Z,2.36
2019-01-21T07:48:51.467Z,3.20
2019-01-21T07:49:51.453Z,3.86
2019-01-21T07:50:51.437Z,3.77
2019-01-21T07:51:51.423Z,3.86
2019-01-21T07:52:51.413Z,4.43
2019-01-21T07:53:51.394Z,4.43
2019-01-21T07:54:51.379Z,4.24
2019-01-21T07:55:51.364Z,2.83
2019-01-21T07:56:51.352Z,1.88
2019-01-21T07:57:51.336Z,1.60
2019-01-21T07:58:51.323Z,0.00
2019-01-21T07:59:51.308Z,0.00
2019-01-21T08:00:51.295Z,0.00
2019-01-21T08:01:51.280Z,0.00
2019-01-21T08:02:51.266Z,0.00
2019-01-21T08:03:51.250Z,0.00
2019-01-21T08:04:51.237Z,0.00
2019-01-21T08:05:51.224Z,0.00
2019-01-21T08:06:51.207Z,0.00
2019-01-21T08:07:51.193Z,0.00
2019-01-21T08:08:51.180Z,0.00
2019-01-21T08:09:51.165Z,0.47
2019-01-21T08:10:51.151Z,0.18
2019-01-21T08:11:51.138Z,0.00
2019-01-21T08:12:51.123Z,0.00
2019-01-21T08:13:51.108Z,0.00
2019-01-21T08:14:51.094Z,0.00
2019-01-21T08:15:51.084Z,0.00
2019-01-21T08:16:51.064Z,2.36
2019-01-21T08:17:51.053Z,5.18
2019-01-21T08:18:51.039Z,6.79
2019-01-21T08:19:51.025Z,8.01
2019-01-21T08:20:51.009Z,8.01
2019-01-21T08:21:50.996Z,9.43
2019-01-21T08:22:50.980Z,7.17
2019-01-21T08:23:50.968Z,2.73
2019-01-21T08:24:50.953Z,2.36
2019-01-21T08:25:50.939Z,0.75
2019-01-21T08:26:50.926Z,1.13
2019-01-21T08:27:50.910Z,3.49
2019-01-21T08:28:50.898Z,3.96
2019-01-21T08:29:50.883Z,5.56
2019-01-21T08:30:50.869Z,7.73
2019-01-21T08:31:50.856Z,8.96
2019-01-21T08:32:50.842Z,10.94
2019-01-21T08:33:50.828Z,12.26
2019-01-21T08:34:50.813Z,13.58
2019-01-21T08:35:50.800Z,13.39
2019-01-21T08:36:50.785Z,13.01
2019-01-21T08:37:50.772Z,12.35
2019-01-21T08:38:50.761Z,11.60
2019-01-21T08:39:50.744Z,11.04
2019-01-21T08:40:50.729Z,10.75
2019-01-21T08:41:50.716Z,10.28
2019-01-21T08:42:50.704Z,9.71
2019-01-21T08:43:50.688Z,9.81
2019-01-21T08:44:50.712Z,10.18
2019-01-21T08:45:50.661Z,9.90
2019-01-21T08:46:50.648Z,8.86
2019-01-21T08:47:50.634Z,10.09
2019-01-21T08:48:50.619Z,10.75
2019-01-21T08:49:50.607Z,10.18
2019-01-21T08:50:50.593Z,10.37
2019-01-21T08:51:50.578Z,9.90
2019-01-21T08:52:50.565Z,7.73
2019-01-21T08:53:50.553Z,7.73
2019-01-21T08:54:50.536Z,6.22
2019-01-21T08:55:50.524Z,4.33
2019-01-21T08:56:50.510Z,5.09
2019-01-21T08:57:50.498Z,6.13
2019-01-21T08:58:50.483Z,7.35
2019-01-21T08:59:50.470Z,6.13
2019-01-21T09:00:50.457Z,6.22
2019-01-21T09:01:50.442Z,5.94
2019-01-21T09:02:50.429Z,5.56
2019-01-21T09:03:50.415Z,5.37
2019-01-21T09:04:50.401Z,5.09
2019-01-21T09:05:50.389Z,3.30
2019-01-21T09:06:50.375Z,2.55
2019-01-21T09:07:50.362Z,2.36
2019-01-21T09:08:50.349Z,1.51
2019-01-21T09:09:50.336Z,1.13
2019-01-21T09:10:50.321Z,1.70
2019-01-21T09:11:50.307Z,1.98
2019-01-21T09:12:50.296Z,1.79
2019-01-21T09:13:50.284Z,1.98
2019-01-21T09:14:50.267Z,2.36
2019-01-21T09:15:50.257Z,2.64
2019-01-21T09:16:50.242Z,2.17
2019-01-21T09:17:50.231Z,1.13
2019-01-21T09:18:50.217Z,0.47
2019-01-21T09:19:50.237Z,0.00
2019-01-21T09:20:50.190Z,0.00
2019-01-21T09:21:50.177Z,0.00
2019-01-21T09:22:50.164Z,0.00
2019-01-21T09:23:50.150Z,0.00
2019-01-21T09:24:50.139Z,0.00
2019-01-21T09:25:50.125Z,0.00
2019-01-21T09:26:50.112Z,0.00
2019-01-21T09:27:50.100Z,0.00
2019-01-21T09:28:50.087Z,1.70
2019-01-21T09:29:50.075Z,2.26
2019-01-21T09:30:50.059Z,3.30
2019-01-21T09:31:50.049Z,4.34
2019-01-21T09:32:50.036Z,4.91
2019-01-21T09:33:50.022Z,5.76
2019-01-21T09:34:50.009Z,5.94
2019-01-21T09:35:49.998Z,5.47
2019-01-21T09:36:49.983Z,5.94
2019-01-21T09:37:49.973Z,5.29
2019-01-21T09:38:49.958Z,7.93
2019-01-21T09:39:49.946Z,9.91
2019-01-21T09:40:49.933Z,11.14
2019-01-21T09:41:49.922Z,13.40
2019-01-21T09:42:49.907Z,14.06
2019-01-21T09:43:49.897Z,15.29
2019-01-21T09:44:49.882Z,15.86
2019-01-21T09:45:49.871Z,13.87
2019-01-21T09:46:49.858Z,14.16
2019-01-21T09:47:49.845Z,12.65
2019-01-21T09:48:49.834Z,13.32
2019-01-21T09:49:49.822Z,14.07
2019-01-21T09:50:49.808Z,15.87
2019-01-21T09:51:49.797Z,20.40
2019-01-21T09:52:49.784Z,21.72
2019-01-21T09:53:49.773Z,22.10
2019-01-21T09:54:49.760Z,21.72
2019-01-21T09:55:49.748Z,21.91
2019-01-21T09:56:49.736Z,22.29
2019-01-21T09:57:49.759Z,24.93
2019-01-21T09:58:49.716Z,26.17
2019-01-21T09:59:49.699Z,27.67
2019-01-21T10:00:49.687Z,28.33
2019-01-21T10:01:49.677Z,29.09
2019-01-21T10:02:49.664Z,29.47
2019-01-21T10:03:49.650Z,30.69
2019-01-21T10:04:49.639Z,30.51
2019-01-21T10:05:49.628Z,32.78
2019-01-21T10:06:49.615Z,33.44
2019-01-21T10:07:49.603Z,34.11
2019-01-21T10:08:49.592Z,34.68
2019-01-21T10:09:55.187Z,34.87
2019-01-21T10:10:49.566Z,35.72
2019-01-21T10:11:49.557Z,36.47
2019-01-21T10:12:49.545Z,35.71
2019-01-21T10:13:49.533Z,35.14
2019-01-21T10:14:49.519Z,35.04
2019-01-21T10:15:49.509Z,35.61
2019-01-21T10:16:49.497Z,35.33
2019-01-21T10:17:49.484Z,35.44
2019-01-21T10:18:49.472Z,36.00
2019-01-21T10:19:50.506Z,38.28
2019-01-21T10:20:49.839Z,38.18
2019-01-21T10:21:49.438Z,38.84
2019-01-21T10:22:49.427Z,37.14
2019-01-21T10:23:49.415Z,37.71
2019-01-21T10:24:49.402Z,38.65
2019-01-21T10:25:49.392Z,39.88
2019-01-21T10:26:49.381Z,41.20
2019-01-21T10:27:49.513Z,40.83
2019-01-21T10:28:49.359Z,41.30
2019-01-21T10:29:49.346Z,41.30
2019-01-21T10:30:49.335Z,41.11
2019-01-21T10:31:49.323Z,41.39
2019-01-21T10:32:49.311Z,40.92
2019-01-21T10:33:49.302Z,43.09
2019-01-21T10:34:49.288Z,44.79
2019-01-21T10:35:49.279Z,45.55
2019-01-21T10:36:49.266Z,49.52
2019-01-21T10:37:49.260Z,52.64
2019-01-21T10:38:49.244Z,56.92
2019-01-21T10:39:49.232Z,61.46
2019-01-21T10:40:49.222Z,72.28
2019-01-21T10:41:49.212Z,80.22
2019-01-21T10:42:49.227Z,85.57
2019-01-21T10:43:49.195Z,91.91
2019-01-21T10:44:49.184Z,98.01
2019-01-21T10:45:49.176Z,99.99
2019-01-21T10:46:49.166Z,99.99
2019-01-21T10:47:49.158Z,99.99
2019-01-21T10:48:49.149Z,99.99
2019-01-21T10:49:49.143Z,99.99
2019-01-21T10:50:49.135Z,99.99
2019-01-21T10:51:49.126Z,99.99
2019-01-21T10:52:49.120Z,99.99
2019-01-21T10:53:49.113Z,99.99
2019-01-21T10:54:49.106Z,99.99
2019-01-21T10:55:49.101Z,99.99
2019-01-21T10:56:49.093Z,99.99
2019-01-21T10:57:49.085Z,99.99
2019-01-21T10:58:49.079Z,99.99
2019-01-21T10:59:49.075Z,99.99
2019-01-21T11:00:49.068Z,99.99
2019-01-21T11:01:49.062Z,99.99
2019-01-21T11:02:49.054Z,99.99
2019-01-21T11:03:49.050Z,99.99
2019-01-21T11:04:49.043Z,99.99
2019-01-21T11:05:49.036Z,99.99
2019-01-21T11:06:49.031Z,99.99
2019-01-21T11:07:49.025Z,99.99
2019-01-21T11:08:49.018Z,99.99
2019-01-21T11:09:49.013Z,99.99
2019-01-21T11:10:49.006Z,96.45
2019-01-21T11:11:53.969Z,91.24
2019-01-21T11:12:48.996Z,86.28
2019-01-21T11:13:48.990Z,81.77
2019-01-21T11:14:48.982Z,87.08
2019-01-21T11:15:48.976Z,93.18
2019-01-21T11:16:48.971Z,98.49
2019-01-21T11:17:48.965Z,99.99
2019-01-21T11:18:48.958Z,99.99
2019-01-21T11:19:48.952Z,99.99
2019-01-21T11:20:48.945Z,99.99
2019-01-21T11:21:48.939Z,99.99
2019-01-21T11:22:48.937Z,99.99
2019-01-21T11:23:48.927Z,98.86
2019-01-21T11:24:48.919Z,96.12
2019-01-21T11:25:48.915Z,93.13
2019-01-21T11:26:48.907Z,88.87
2019-01-21T11:27:48.900Z,87.17
2019-01-21T11:28:48.900Z,84.52
2019-01-21T11:29:48.887Z,84.71
2019-01-21T11:30:48.881Z,85.66
2019-01-21T11:31:48.874Z,86.98
2019-01-21T11:32:48.869Z,86.51
2019-01-21T11:33:48.861Z,84.86
2019-01-21T11:34:48.853Z,80.60
2019-01-21T11:35:48.847Z,77.76
2019-01-21T11:36:48.840Z,74.93
2019-01-21T11:37:48.836Z,74.64
2019-01-21T11:38:48.824Z,76.48
2019-01-21T11:39:48.818Z,79.98
2019-01-21T11:40:48.809Z,83.34
2019-01-21T11:41:48.804Z,82.31
2019-01-21T11:42:48.795Z,82.78
2019-01-21T11:43:48.787Z,82.15
2019-01-21T11:44:48.781Z,83.39
2019-01-21T11:45:48.776Z,85.47
2019-01-21T11:46:48.764Z,86.89
2019-01-21T11:47:48.757Z,86.70
2019-01-21T11:48:48.749Z,89.63
2019-01-21T11:49:48.747Z,90.20
2019-01-21T11:50:48.734Z,86.79
2019-01-21T11:51:48.725Z,83.15
2019-01-21T11:52:48.718Z,80.69
2019-01-21T11:53:48.712Z,80.13
2019-01-21T11:54:48.700Z,80.41
2019-01-21T11:55:48.693Z,82.72
2019-01-21T11:56:48.685Z,85.57
2019-01-21T11:57:48.678Z,86.79
2019-01-21T11:58:48.671Z,85.94
2019-01-21T11:59:48.661Z,82.12
2019-01-21T12:00:48.656Z,82.59
2019-01-21T12:01:48.646Z,81.07
2019-01-21T12:02:48.639Z,78.52
2019-01-21T12:03:48.628Z,80.04
2019-01-21T12:04:48.620Z,79.28
2019-01-21T12:05:48.611Z,76.34
2019-01-21T12:06:48.607Z,75.12
2019-01-21T12:07:48.596Z,78.71
2019-01-21T12:08:48.589Z,78.90
2019-01-21T12:09:48.581Z,77.95
2019-01-21T12:10:48.571Z,79.09
2019-01-21T12:11:48.564Z,79.18
2019-01-21T12:12:48.555Z,80.13
2019-01-21T12:13:48.548Z,79.66
2019-01-21T12:14:48.537Z,79.18
2019-01-21T12:15:48.529Z,77.95
2019-01-21T12:16:48.523Z,76.63
2019-01-21T12:17:48.515Z,80.88
2019-01-21T12:18:48.506Z,82.50
2019-01-21T12:19:48.496Z,83.25
2019-01-21T12:20:48.486Z,82.21
2019-01-21T12:21:48.479Z,80.88
2019-01-21T12:22:48.469Z,79.56
2019-01-21T12:23:48.462Z,80.13
2019-01-21T12:24:48.453Z,80.88
2019-01-21T12:25:48.444Z,78.90
2019-01-21T12:26:48.435Z,77.76
2019-01-21T12:27:48.427Z,78.71
2019-01-21T12:28:48.417Z,78.61
2019-01-21T12:29:48.408Z,78.14
2019-01-21T12:30:48.401Z,79.47
2019-01-21T12:31:48.391Z,78.90
2019-01-21T12:32:48.382Z,74.83
2019-01-21T12:33:48.377Z,75.59
2019-01-21T12:34:48.364Z,78.14
2019-01-21T12:35:48.355Z,81.07
2019-01-21T12:36:48.346Z,83.82
2019-01-21T12:37:48.336Z,85.71
2019-01-21T12:38:48.326Z,84.86
2019-01-21T12:39:48.317Z,84.67
2019-01-21T12:40:48.309Z,83.72
2019-01-21T12:41:48.300Z,83.06
2019-01-21T12:42:48.292Z,83.63
2019-01-21T12:43:48.282Z,82.02
2019-01-21T12:44:48.273Z,82.21
2019-01-21T12:45:48.263Z,81.45
2019-01-21T12:46:48.254Z,82.12
2019-01-21T12:47:48.248Z,85.24
2019-01-21T12:48:48.250Z,92.14
2019-01-21T12:49:48.229Z,94.51
2019-01-21T12:50:48.218Z,91.77
2019-01-21T12:51:48.209Z,91.86
2019-01-21T12:52:48.199Z,89.69
2019-01-21T12:53:48.192Z,90.63
2019-01-21T12:54:48.180Z,90.44
2019-01-21T12:55:48.173Z,90.16
2019-01-21T12:56:48.166Z,90.06
2019-01-21T12:57:48.155Z,96.02
2019-01-21T12:58:48.146Z,93.94
2019-01-21T12:59:48.135Z,93.94
2019-01-21T13:00:48.125Z,93.47
2019-01-21T13:01:48.118Z,95.93